Tompkinsville, KY (42167)

3:53 AM CDT on August 03, 2015 (GMT -0500)
Center Point Ky | | Change Station
CLOSE
Current Station
Personal Weather Station
Location: Tompkinsville, KY
Elevation: 740 ft
Nearby Weather Stations

Elev 740 ft 36.72 °N, 85.51 °W | Updated 14 minutes ago

Partly Cloudy
Partly Cloudy
62.2 °F
Feels Like 62.2 °F
N
0.0
Wind Variable Wind from North

Today
High -- | Low -- °F
--% Chance of Precip.
Yesterday
High -- | Low -- °F
Precip. -- in
5:50 AM 7:47 PM
Waning Gibbous, 88% visible
Pressure 29.89 in
Visibility 10.0 miles
Clouds Clear
Dew Point 62 °F
Humidity 99%
Rainfall 0.00 in
Snow Depth Not available.
UV 0 out of 12
Pollen 4.70 out of 12
Air Quality Not available.
Flu Activity Not available.
METAR KBWG 030753Z AUTO 00000KT 10SM CLR 19/18 A2991 RMK AO2 SLP121 T01940178

More Conditions Fewer Conditions

Pressure 29.89 in
Visibility 10.0 miles
Clouds Clear
Dew Point 62 °F
Humidity 99%
Rainfall 0.00 in
Snow Depth Not available.
UV 0 out of 12
Pollen 4.70 out of 12
Air Quality Not available.
Flu Activity Not available.
METAR KBWG 030753Z AUTO 00000KT 10SM CLR 19/18 A2991 RMK AO2 SLP121 T01940178

More Conditions Fewer Conditions

10-Day Weather Forecast

×

Almanac

Astronomy

Aug. 03, 2015 Rise Set
Actual Time
Civil Twilight
Nautical Twilight
Astronomical Twilight
Moon
Length of Visible Light
Length of Day
Tomorrow will be .
, % of the Moon is Illuminated

Today's Extremes

State Highs State Lows

Community

WunderPhotos

Upload Photos

1,843,592 photos uploaded!

WunderBlogs® & News

Nearby

Air Quality

  Air Quality AQ Index Pollutant
Not available.

Snow Depth

Station Depth Elevation

Earthquake Activity

City Distance Mag. Time & Date
Minimum magnitude displayed is 2.5.

Coastal Water Temperatures

Place Temperature

Stations

Nearby Weather Stations

Station Location Temp. Windchill Dew Point Humidity Wind Precip. Elev Updated Type